sensor_id;sensor_type;location;lat;lon;timestamp;pressure;altitude;pressure_sealevel;temperature;humidity
3132;BME280;62090;52.330;9.104;2022-09-03T00:00:36;100932.06;;;18.48;51.04
3132;BME280;62090;52.330;9.104;2022-09-03T00:03:16;100937.28;;;18.39;51.05
3132;BME280;62090;52.330;9.104;2022-09-03T00:05:59;100922.66;;;18.37;50.92
3132;BME280;62090;52.330;9.104;2022-09-03T00:08:37;100937.25;;;18.42;51.01
3132;BME280;62090;52.330;9.104;2022-09-03T00:11:13;100931.28;;;18.30;51.46
3132;BME280;62090;52.330;9.104;2022-09-03T00:13:49;100918.44;;;18.22;51.64
3132;BME280;62090;52.330;9.104;2022-09-03T00:16:23;100928.69;;;18.30;51.34
3132;BME280;62090;52.330;9.104;2022-09-03T00:18:57;100918.41;;;18.28;51.36
3132;BME280;62090;52.330;9.104;2022-09-03T00:21:37;100930.44;;;18.32;51.21
3132;BME280;62090;52.330;9.104;2022-09-03T00:24:11;100920.13;;;18.29;51.45
3132;BME280;62090;52.330;9.104;2022-09-03T00:26:44;100920.97;;;18.25;51.43
3132;BME280;62090;52.330;9.104;2022-09-03T00:29:18;100916.75;;;18.12;51.58
3132;BME280;62090;52.330;9.104;2022-09-03T00:31:52;100900.47;;;17.89;52.23
3132;BME280;62090;52.330;9.104;2022-09-03T00:34:26;100914.22;;;18.00;52.35
3132;BME280;62090;52.330;9.104;2022-09-03T00:37:00;100921.09;;;18.02;52.35
3132;BME280;62090;52.330;9.104;2022-09-03T00:39:32;100923.66;;;18.02;52.46
3132;BME280;62090;52.330;9.104;2022-09-03T00:42:13;100923.66;;;17.99;52.70
3132;BME280;62090;52.330;9.104;2022-09-03T00:44:58;100926.28;;;17.89;52.78
3132;BME280;62090;52.330;9.104;2022-09-03T00:47:40;100921.97;;;17.88;52.54
3132;BME280;62090;52.330;9.104;2022-09-03T00:50:16;100924.56;;;17.89;52.77
3132;BME280;62090;52.330;9.104;2022-09-03T00:52:58;100910.84;;;17.73;53.36
3132;BME280;62090;52.330;9.104;2022-09-03T00:55:38;100903.13;;;17.64;53.33
3132;BME280;62090;52.330;9.104;2022-09-03T00:58:43;100919.44;;;17.54;54.34
3132;BME280;62090;52.330;9.104;2022-09-03T01:01:20;100922.00;;;17.47;54.68
3132;BME280;62090;52.330;9.104;2022-09-03T01:04:01;100924.59;;;17.54;54.51
3132;BME280;62090;52.330;9.104;2022-09-03T01:06:42;100907.44;;;17.32;55.37
3132;BME280;62090;52.330;9.104;2022-09-03T01:09:34;100920.31;;;17.32;55.08
3132;BME280;62090;52.330;9.104;2022-09-03T01:12:16;100920.31;;;17.34;55.47
3132;BME280;62090;52.330;9.104;2022-09-03T01:14:55;100915.16;;;17.24;55.89
3132;BME280;62090;52.330;9.104;2022-09-03T01:17:38;100916.88;;;17.22;55.24
3132;BME280;62090;52.330;9.104;2022-09-03T01:20:30;100917.75;;;17.21;55.38
3132;BME280;62090;52.330;9.104;2022-09-03T01:26:30;100916.88;;;16.97;55.65
3132;BME280;62090;52.330;9.104;2022-09-03T01:29:14;100923.75;;;16.96;55.86
3132;BME280;62090;52.330;9.104;2022-09-03T01:31:55;100925.47;;;17.02;55.84
3132;BME280;62090;52.330;9.104;2022-09-03T01:34:39;100916.88;;;17.07;55.85
3132;BME280;62090;52.330;9.104;2022-09-03T01:37:16;100925.44;;;17.00;56.17
3132;BME280;62090;52.330;9.104;2022-09-03T01:39:58;100933.16;;;16.94;56.20
3132;BME280;62090;52.330;9.104;2022-09-03T01:42:37;100927.13;;;16.78;56.52
3132;BME280;62090;52.330;9.104;2022-09-03T01:45:31;100930.53;;;16.68;56.58
3132;BME280;62090;52.330;9.104;2022-09-03T01:48:30;100928.81;;;16.69;56.99
3132;BME280;62090;52.330;9.104;2022-09-03T01:51:07;100937.41;;;16.72;56.92
3132;BME280;62090;52.330;9.104;2022-09-03T01:53:56;100926.25;;;16.78;56.71
3132;BME280;62090;52.330;9.104;2022-09-03T01:56:46;100934.84;;;16.72;57.08
3132;BME280;62090;52.330;9.104;2022-09-03T01:59:28;100932.25;;;16.66;57.48
3132;BME280;62090;52.330;9.104;2022-09-03T02:02:05;100921.09;;;16.63;57.27
3132;BME280;62090;52.330;9.104;2022-09-03T02:04:36;100921.94;;;16.59;57.46
3132;BME280;62090;52.330;9.104;2022-09-03T02:07:06;100923.66;;;16.61;57.52
3132;BME280;62090;52.330;9.104;2022-09-03T02:09:36;100925.28;;;16.50;58.23
3132;BME280;62090;52.330;9.104;2022-09-03T02:12:08;100924.44;;;16.42;58.11
3132;BME280;62090;52.330;9.104;2022-09-03T02:14:41;100908.09;;;16.31;58.32
3132;BME280;62090;52.330;9.104;2022-09-03T02:17:14;100909.84;;;16.38;57.99
3132;BME280;62090;52.330;9.104;2022-09-03T02:19:44;100930.47;;;16.56;57.54
3132;BME280;62090;52.330;9.104;2022-09-03T02:22:13;100929.63;;;16.54;57.93
3132;BME280;62090;52.330;9.104;2022-09-03T02:24:43;100935.66;;;16.59;57.93
3132;BME280;62090;52.330;9.104;2022-09-03T02:27:13;100930.47;;;16.58;58.01
3132;BME280;62090;52.330;9.104;2022-09-03T02:29:43;100928.81;;;16.67;58.01
3132;BME280;62090;52.330;9.104;2022-09-03T02:32:16;100933.97;;;16.64;58.02
3132;BME280;62090;52.330;9.104;2022-09-03T02:34:45;100881.53;;;16.32;58.10
3132;BME280;62090;52.330;9.104;2022-09-03T02:37:17;100925.41;;;16.65;58.11
3132;BME280;62090;52.330;9.104;2022-09-03T02:39:47;100904.72;;;16.50;58.37
3132;BME280;62090;52.330;9.104;2022-09-03T02:42:18;100929.66;;;16.59;58.29
3132;BME280;62090;52.330;9.104;2022-09-03T02:44:51;100927.09;;;16.59;58.29
3132;BME280;62090;52.330;9.104;2022-09-03T02:47:28;100924.47;;;16.53;58.78
3132;BME280;62090;52.330;9.104;2022-09-03T02:49:59;100930.44;;;16.52;58.78
3132;BME280;62090;52.330;9.104;2022-09-03T02:52:29;100925.25;;;16.36;58.96
3132;BME280;62090;52.330;9.104;2022-09-03T02:54:58;100915.75;;;16.20;59.50
3132;BME280;62090;52.330;9.104;2022-09-03T02:57:28;100922.69;;;16.36;59.48
3132;BME280;62090;52.330;9.104;2022-09-03T02:59:58;100926.97;;;16.37;59.61
3132;BME280;62090;52.330;9.104;2022-09-03T03:02:30;100927.00;;;16.39;59.39
3132;BME280;62090;52.330;9.104;2022-09-03T03:05:00;100914.88;;;16.18;59.59
3132;BME280;62090;52.330;9.104;2022-09-03T03:07:31;100925.22;;;16.29;59.86
3132;BME280;62090;52.330;9.104;2022-09-03T03:10:06;100919.19;;;16.18;60.06
3132;BME280;62090;52.330;9.104;2022-09-03T03:12:36;100913.16;;;16.13;60.07
3132;BME280;62090;52.330;9.104;2022-09-03T03:15:06;100923.47;;;16.17;60.16
3132;BME280;62090;52.330;9.104;2022-09-03T03:17:38;100918.34;;;16.25;60.09
3132;BME280;62090;52.330;9.104;2022-09-03T03:20:09;100918.31;;;16.16;60.18
3132;BME280;62090;52.330;9.104;2022-09-03T03:22:39;100922.59;;;16.12;60.42
3132;BME280;62090;52.330;9.104;2022-09-03T03:25:08;100923.44;;;16.10;60.53
3132;BME280;62090;52.330;9.104;2022-09-03T03:27:38;100924.28;;;16.10;60.63
3132;BME280;62090;52.330;9.104;2022-09-03T03:30:10;100916.59;;;16.10;60.54
3132;BME280;62090;52.330;9.104;2022-09-03T03:32:43;100924.31;;;16.19;60.19
3132;BME280;62090;52.330;9.104;2022-09-03T03:35:13;100923.47;;;16.19;60.11
3132;BME280;62090;52.330;9.104;2022-09-03T03:37:42;100905.44;;;16.13;60.05
3132;BME280;62090;52.330;9.104;2022-09-03T03:40:12;100921.78;;;16.24;60.11
3132;BME280;62090;52.330;9.104;2022-09-03T03:42:42;100911.47;;;16.16;59.84
3132;BME280;62090;52.330;9.104;2022-09-03T03:45:12;100925.16;;;16.12;60.73
3132;BME280;62090;52.330;9.104;2022-09-03T03:47:44;100900.28;;;16.02;60.18
3132;BME280;62090;52.330;9.104;2022-09-03T03:50:14;100930.28;;;16.11;60.50
3132;BME280;62090;52.330;9.104;2022-09-03T03:52:45;100930.22;;;15.98;60.86
3132;BME280;62090;52.330;9.104;2022-09-03T03:55:14;100925.03;;;15.89;61.22
3132;BME280;62090;52.330;9.104;2022-09-03T03:57:44;100919.81;;;15.77;61.46
3132;BME280;62090;52.330;9.104;2022-09-03T04:00:15;100923.28;;;15.79;61.42
3132;BME280;62090;52.330;9.104;2022-09-03T04:02:47;100917.97;;;15.55;62.13
3132;BME280;62090;52.330;9.104;2022-09-03T04:05:17;100918.00;;;15.59;62.46
3132;BME280;62090;52.330;9.104;2022-09-03T04:07:49;100920.59;;;15.66;62.36
3132;BME280;62090;52.330;9.104;2022-09-03T04:10:19;100913.59;;;15.49;62.67
3132;BME280;62090;52.330;9.104;2022-09-03T04:12:49;100913.72;;;15.58;62.40
3132;BME280;62090;52.330;9.104;2022-09-03T04:15:22;100913.69;;;15.55;62.60
3132;BME280;62090;52.330;9.104;2022-09-03T04:17:55;100919.59;;;15.44;62.69
3132;BME280;62090;52.330;9.104;2022-09-03T04:20:26;100909.28;;;15.41;62.62
3132;BME280;62090;52.330;9.104;2022-09-03T04:22:59;100860.34;;;15.19;62.72
3132;BME280;62090;52.330;9.104;2022-09-03T04:25:29;100913.69;;;15.55;62.35
3132;BME280;62090;52.330;9.104;2022-09-03T04:27:59;100896.41;;;15.36;62.67
3132;BME280;62090;52.330;9.104;2022-09-03T04:30:29;100916.19;;;15.51;62.55
3132;BME280;62090;52.330;9.104;2022-09-03T04:33:02;100893.88;;;15.41;62.61
3132;BME280;62090;52.330;9.104;2022-09-03T04:35:41;100916.16;;;15.46;62.89
3132;BME280;62090;52.330;9.104;2022-09-03T04:38:11;100900.72;;;15.42;62.57
3132;BME280;62090;52.330;9.104;2022-09-03T04:40:41;100905.00;;;15.41;63.02
3132;BME280;62090;52.330;9.104;2022-09-03T04:43:11;100918.66;;;15.36;63.14
3132;BME280;62090;52.330;9.104;2022-09-03T04:45:41;100908.31;;;15.30;63.29
3132;BME280;62090;52.330;9.104;2022-09-03T04:48:13;100911.78;;;15.32;63.49
3132;BME280;62090;52.330;9.104;2022-09-03T04:50:43;100909.97;;;15.17;63.82
3132;BME280;62090;52.330;9.104;2022-09-03T04:53:12;100917.69;;;15.25;63.84
3132;BME280;62090;52.330;9.104;2022-09-03T04:55:42;100913.53;;;15.37;63.72
3132;BME280;62090;52.330;9.104;2022-09-03T04:58:12;100855.97;;;15.09;63.37
3132;BME280;62090;52.330;9.104;2022-09-03T05:00:42;100903.25;;;15.37;63.24
3132;BME280;62090;52.330;9.104;2022-09-03T05:03:14;100917.84;;;15.44;63.27
3132;BME280;62090;52.330;9.104;2022-09-03T05:05:51;100907.53;;;15.40;63.27
3132;BME280;62090;52.330;9.104;2022-09-03T05:08:20;100918.75;;;15.49;63.38
3132;BME280;62090;52.330;9.104;2022-09-03T05:10:57;100912.03;;;15.65;62.72
3132;BME280;62090;52.330;9.104;2022-09-03T05:13:27;100921.31;;;15.48;63.36
3132;BME280;62090;52.330;9.104;2022-09-03T05:16:01;100919.69;;;15.56;63.29
3132;BME280;62090;52.330;9.104;2022-09-03T05:18:34;100917.13;;;15.54;63.30
3132;BME280;62090;52.330;9.104;2022-09-03T05:21:05;100897.28;;;15.38;63.77
3132;BME280;62090;52.330;9.104;2022-09-03T05:23:36;100912.75;;;15.47;63.83
3132;BME280;62090;52.330;9.104;2022-09-03T05:26:08;100914.44;;;15.44;63.84
3132;BME280;62090;52.330;9.104;2022-09-03T05:28:39;100922.19;;;15.48;63.43
3132;BME280;62090;52.330;9.104;2022-09-03T05:31:11;100914.47;;;15.47;63.73
3132;BME280;62090;52.330;9.104;2022-09-03T05:33:45;100914.59;;;15.62;63.59
3132;BME280;62090;52.330;9.104;2022-09-03T05:36:17;100914.63;;;15.68;63.52
3132;BME280;62090;52.330;9.104;2022-09-03T05:38:48;100905.22;;;15.69;63.56
3132;BME280;62090;52.330;9.104;2022-09-03T05:41:20;100912.22;;;15.98;63.12
3132;BME280;62090;52.330;9.104;2022-09-03T05:43:51;100912.25;;;16.04;62.76
3132;BME280;62090;52.330;9.104;2022-09-03T05:46:23;100914.03;;;16.15;62.09
3132;BME280;62090;52.330;9.104;2022-09-03T05:48:59;100913.16;;;16.13;62.29
3132;BME280;62090;52.330;9.104;2022-09-03T05:51:30;100908.03;;;16.16;62.40
3132;BME280;62090;52.330;9.104;2022-09-03T05:54:00;100918.44;;;16.43;61.12
3132;BME280;62090;52.330;9.104;2022-09-03T05:56:32;100918.47;;;16.49;60.97
3132;BME280;62090;52.330;9.104;2022-09-03T05:59:03;100917.56;;;16.45;60.93
3132;BME280;62090;52.330;9.104;2022-09-03T06:01:36;100909.03;;;16.54;61.18
3132;BME280;62090;52.330;9.104;2022-09-03T06:04:10;100904.81;;;16.65;60.64
3132;BME280;62090;52.330;9.104;2022-09-03T06:06:41;100918.59;;;17.05;60.46
3132;BME280;62090;52.330;9.104;2022-09-03T06:09:13;100913.44;;;17.10;59.76
3132;BME280;62090;52.330;9.104;2022-09-03T06:11:44;100920.31;;;17.32;59.49
3132;BME280;62090;52.330;9.104;2022-09-03T06:14:16;100921.16;;;17.42;58.56
3132;BME280;62090;52.330;9.104;2022-09-03T06:16:47;100921.16;;;17.58;58.45
3132;BME280;62090;52.330;9.104;2022-09-03T06:19:21;100920.28;;;17.87;57.31
3132;BME280;62090;52.330;9.104;2022-09-03T06:21:51;100910.84;;;17.67;57.98
3132;BME280;62090;52.330;9.104;2022-09-03T06:24:21;100901.41;;;17.62;58.50
3132;BME280;62090;52.330;9.104;2022-09-03T06:26:54;100911.63;;;17.94;57.40
3132;BME280;62090;52.330;9.104;2022-09-03T06:29:25;100918.41;;;18.19;57.64
3132;BME280;62090;52.330;9.104;2022-09-03T06:31:54;100906.31;;;18.39;56.75
3132;BME280;62090;52.330;9.104;2022-09-03T06:34:27;100912.09;;;18.87;55.46
3132;BME280;62090;52.330;9.104;2022-09-03T06:36:57;100921.38;;;19.09;54.82
3132;BME280;62090;52.330;9.104;2022-09-03T06:39:27;100870.97;;;18.58;55.67
3132;BME280;62090;52.330;9.104;2022-09-03T06:41:57;100926.88;;;18.61;56.07
3132;BME280;62090;52.330;9.104;2022-09-03T06:44:34;100926.81;;;18.67;56.09
3132;BME280;62090;52.330;9.104;2022-09-03T06:47:04;100896.72;;;18.69;55.99
3132;BME280;62090;52.330;9.104;2022-09-03T06:49:36;100910.44;;;18.77;55.65
3132;BME280;62090;52.330;9.104;2022-09-03T06:52:06;100928.41;;;18.89;55.79
3132;BME280;62090;52.330;9.104;2022-09-03T06:54:37;100921.53;;;18.91;55.50
3132;BME280;62090;52.330;9.104;2022-09-03T06:57:07;100926.06;;;18.55;56.19
3132;BME280;62090;52.330;9.104;2022-09-03T06:59:36;100927.75;;;18.53;56.59
3132;BME280;62090;52.330;9.104;2022-09-03T07:02:06;100928.72;;;18.27;57.18
3132;BME280;62090;52.330;9.104;2022-09-03T07:04:38;100921.91;;;18.12;57.76
3132;BME280;62090;52.330;9.104;2022-09-03T07:07:10;100933.09;;;18.12;57.90
3132;BME280;62090;52.330;9.104;2022-09-03T07:09:39;100921.13;;;17.89;58.35
3132;BME280;62090;52.330;9.104;2022-09-03T07:12:14;100927.13;;;17.89;58.40
3132;BME280;62090;52.330;9.104;2022-09-03T07:14:45;100922.03;;;17.76;58.32
3132;BME280;62090;52.330;9.104;2022-09-03T07:17:16;100923.72;;;17.77;58.48
3132;BME280;62090;52.330;9.104;2022-09-03T07:19:49;100919.44;;;17.74;58.16
3132;BME280;62090;52.330;9.104;2022-09-03T07:22:19;100932.28;;;17.92;58.48
3132;BME280;62090;52.330;9.104;2022-09-03T07:24:56;100924.50;;;18.10;58.09
3132;BME280;62090;52.330;9.104;2022-09-03T07:27:27;100919.31;;;18.18;57.56
3132;BME280;62090;52.330;9.104;2022-09-03T07:29:58;100925.31;;;18.23;57.00
3132;BME280;62090;52.330;9.104;2022-09-03T07:32:29;100908.94;;;18.27;57.02
3132;BME280;62090;52.330;9.104;2022-09-03T07:35:01;100925.25;;;18.40;57.47
3132;BME280;62090;52.330;9.104;2022-09-03T07:37:32;100926.91;;;18.45;56.81
3132;BME280;62090;52.330;9.104;2022-09-03T07:40:02;100914.09;;;18.33;57.13
3132;BME280;62090;52.330;9.104;2022-09-03T07:42:32;100927.75;;;18.52;57.44
3132;BME280;62090;52.330;9.104;2022-09-03T07:45:05;100908.72;;;18.73;57.15
3132;BME280;62090;52.330;9.104;2022-09-03T07:47:36;100913.03;;;18.74;56.91
3132;BME280;62090;52.330;9.104;2022-09-03T07:50:10;100914.72;;;18.81;55.99
3132;BME280;62090;52.330;9.104;2022-09-03T07:52:42;100907.81;;;18.80;56.14
3132;BME280;62090;52.330;9.104;2022-09-03T07:55:11;100918.13;;;18.87;56.00
3132;BME280;62090;52.330;9.104;2022-09-03T07:57:41;100928.47;;;18.80;56.26
3132;BME280;62090;52.330;9.104;2022-09-03T08:00:13;100929.28;;;18.91;56.28
3132;BME280;62090;52.330;9.104;2022-09-03T08:02:43;100920.59;;;19.01;56.02
3132;BME280;62090;52.330;9.104;2022-09-03T08:05:15;100931.75;;;19.06;55.86
3132;BME280;62090;52.330;9.104;2022-09-03T08:07:47;100929.25;;;18.94;56.17
3132;BME280;62090;52.330;9.104;2022-09-03T08:10:17;100930.88;;;19.04;55.97
3132;BME280;62090;52.330;9.104;2022-09-03T08:12:48;100909.44;;;18.94;55.93
3132;BME280;62090;52.330;9.104;2022-09-03T08:15:18;100938.56;;;19.18;56.53
3132;BME280;62090;52.330;9.104;2022-09-03T08:17:47;100930.75;;;19.21;55.67
3132;BME280;62090;52.330;9.104;2022-09-03T08:20:20;100923.81;;;19.29;55.29
3132;BME280;62090;52.330;9.104;2022-09-03T08:22:50;100928.00;;;19.42;55.45
3132;BME280;62090;52.330;9.104;2022-09-03T08:25:19;100927.88;;;19.60;54.66
3132;BME280;62090;52.330;9.104;2022-09-03T08:27:49;100931.22;;;19.71;54.83
3132;BME280;62090;52.330;9.104;2022-09-03T08:30:19;100932.03;;;19.76;54.91
3132;BME280;62090;52.330;9.104;2022-09-03T08:32:50;100924.22;;;19.81;54.15
3132;BME280;62090;52.330;9.104;2022-09-03T08:35:23;100913.81;;;19.84;54.19
3132;BME280;62090;52.330;9.104;2022-09-03T08:37:52;100930.88;;;20.00;53.86
3132;BME280;62090;52.330;9.104;2022-09-03T08:40:23;100937.91;;;19.92;53.85
3132;BME280;62090;52.330;9.104;2022-09-03T08:43:02;100930.03;;;20.00;53.21
3132;BME280;62090;52.330;9.104;2022-09-03T08:45:37;100930.88;;;20.03;53.59
3132;BME280;62090;52.330;9.104;2022-09-03T08:48:11;100924.59;;;20.24;53.11
3132;BME280;62090;52.330;9.104;2022-09-03T08:50:48;100925.38;;;20.29;52.65
3132;BME280;62090;52.330;9.104;2022-09-03T08:53:29;100911.56;;;20.33;52.65
3132;BME280;62090;52.330;9.104;2022-09-03T08:56:07;100936.09;;;20.67;51.77
3132;BME280;62090;52.330;9.104;2022-09-03T08:58:39;100929.88;;;20.81;51.73
3132;BME280;62090;52.330;9.104;2022-09-03T09:01:15;100918.03;;;20.63;51.17
3132;BME280;62090;52.330;9.104;2022-09-03T09:03:56;100929.91;;;20.79;51.42
3132;BME280;62090;52.330;9.104;2022-09-03T09:06:41;100932.34;;;20.90;50.48
3132;BME280;62090;52.330;9.104;2022-09-03T09:09:22;100943.41;;;20.99;50.31
3132;BME280;62090;52.330;9.104;2022-09-03T09:12:00;100916.94;;;20.81;50.30
3132;BME280;62090;52.330;9.104;2022-09-03T09:14:37;100931.16;;;21.11;50.39
3132;BME280;62090;52.330;9.104;2022-09-03T09:17:20;100913.94;;;21.06;49.96
3132;BME280;62090;52.330;9.104;2022-09-03T09:20:04;100920.72;;;21.17;49.94
3132;BME280;62090;52.330;9.104;2022-09-03T09:22:40;100895.47;;;21.28;50.27
3132;BME280;62090;52.330;9.104;2022-09-03T09:25:15;100907.91;;;21.58;49.88
3132;BME280;62090;52.330;9.104;2022-09-03T09:27:50;100914.50;;;21.74;48.79
3132;BME280;62090;52.330;9.104;2022-09-03T09:30:21;100900.56;;;21.81;48.49
3132;BME280;62090;52.330;9.104;2022-09-03T09:32:52;100902.03;;;21.95;48.28
3132;BME280;62090;52.330;9.104;2022-09-03T09:35:22;100906.41;;;21.94;47.80
3132;BME280;62090;52.330;9.104;2022-09-03T09:37:56;100889.88;;;21.98;47.56
3132;BME280;62090;52.330;9.104;2022-09-03T09:40:31;100890.53;;;22.08;47.41
3132;BME280;62090;52.330;9.104;2022-09-03T09:43:03;100894.84;;;22.09;47.77
3132;BME280;62090;52.330;9.104;2022-09-03T09:45:33;100874.22;;;22.03;47.20
3132;BME280;62090;52.330;9.104;2022-09-03T09:48:14;100891.22;;;22.16;46.88
3132;BME280;62090;52.330;9.104;2022-09-03T09:50:46;100890.13;;;22.27;46.76
3132;BME280;62090;52.330;9.104;2022-09-03T09:53:18;100885.28;;;22.51;46.74
3132;BME280;62090;52.330;9.104;2022-09-03T09:55:50;100885.44;;;22.43;45.99
3132;BME280;62090;52.330;9.104;2022-09-03T09:58:22;100878.28;;;22.53;46.23
3132;BME280;62090;52.330;9.104;2022-09-03T10:01:02;100878.13;;;22.60;45.67
3132;BME280;62090;52.330;9.104;2022-09-03T10:03:34;100879.03;;;22.59;46.12
3132;BME280;62090;52.330;9.104;2022-09-03T10:06:05;100881.38;;;22.71;45.65
3132;BME280;62090;52.330;9.104;2022-09-03T10:08:51;100815.53;;;22.36;45.72
3132;BME280;62090;52.330;9.104;2022-09-03T10:11:22;100833.16;;;22.58;45.97
3132;BME280;62090;52.330;9.104;2022-09-03T10:13:56;100874.31;;;22.78;45.47
3132;BME280;62090;52.330;9.104;2022-09-03T10:16:29;100860.09;;;22.93;45.28
3132;BME280;62090;52.330;9.104;2022-09-03T10:19:08;100850.59;;;22.90;44.87
3132;BME280;62090;52.330;9.104;2022-09-03T10:21:43;100867.25;;;23.17;44.44
3132;BME280;62090;52.330;9.104;2022-09-03T10:24:30;100867.84;;;23.28;44.37
3132;BME280;62090;52.330;9.104;2022-09-03T10:27:09;100846.50;;;23.15;44.28
3132;BME280;62090;52.330;9.104;2022-09-03T10:29:41;100873.78;;;23.33;44.43
3132;BME280;62090;52.330;9.104;2022-09-03T10:32:29;100876.09;;;23.45;43.75
3132;BME280;62090;52.330;9.104;2022-09-03T10:35:14;100865.53;;;23.51;43.85
3132;BME280;62090;52.330;9.104;2022-09-03T10:37:52;100865.19;;;23.64;43.55
3132;BME280;62090;52.330;9.104;2022-09-03T10:40:30;100858.44;;;23.56;43.44
3132;BME280;62090;52.330;9.104;2022-09-03T10:43:24;100844.44;;;23.61;43.09
3132;BME280;62090;52.330;9.104;2022-09-03T10:46:01;100812.78;;;23.45;43.27
3132;BME280;62090;52.330;9.104;2022-09-03T10:48:54;100857.81;;;23.79;43.83
3132;BME280;62090;52.330;9.104;2022-09-03T10:51:33;100852.81;;;23.72;43.10
3132;BME280;62090;52.330;9.104;2022-09-03T10:54:15;100850.03;;;23.79;43.33
3132;BME280;62090;52.330;9.104;2022-09-03T10:56:57;100848.94;;;23.86;42.65
3132;BME280;62090;52.330;9.104;2022-09-03T10:59:43;100851.50;;;23.88;43.05
3132;BME280;62090;52.330;9.104;2022-09-03T11:02:27;100833.41;;;23.83;42.86
3132;BME280;62090;52.330;9.104;2022-09-03T11:05:05;100846.00;;;23.97;43.15
3132;BME280;62090;52.330;9.104;2022-09-03T11:07:39;100835.28;;;24.08;42.63
3132;BME280;62090;52.330;9.104;2022-09-03T11:10:15;100836.13;;;24.08;42.37
3132;BME280;62090;52.330;9.104;2022-09-03T11:13:00;100825.00;;;24.32;42.91
3132;BME280;62090;52.330;9.104;2022-09-03T11:15:35;100836.63;;;24.50;43.45
3132;BME280;62090;52.330;9.104;2022-09-03T11:18:14;100840.56;;;24.63;42.12
3132;BME280;62090;52.330;9.104;2022-09-03T11:20:48;100827.63;;;24.59;41.80
3132;BME280;62090;52.330;9.104;2022-09-03T11:23:26;100823.34;;;24.58;42.09
3132;BME280;62090;52.330;9.104;2022-09-03T11:26:00;100788.06;;;24.48;41.67
3132;BME280;62090;52.330;9.104;2022-09-03T11:28:41;100817.19;;;24.87;41.14
3132;BME280;62090;52.330;9.104;2022-09-03T11:31:21;100814.34;;;24.94;41.06
3132;BME280;62090;52.330;9.104;2022-09-03T11:33:57;100812.44;;;24.99;41.67
3132;BME280;62090;52.330;9.104;2022-09-03T11:36:36;100812.59;;;25.19;40.94
3132;BME280;62090;52.330;9.104;2022-09-03T11:39:19;100792.94;;;25.11;40.57
3132;BME280;62090;52.330;9.104;2022-09-03T11:41:57;100818.63;;;25.21;40.99
3132;BME280;62090;52.330;9.104;2022-09-03T11:44:40;100808.28;;;25.18;41.08
3132;BME280;62090;52.330;9.104;2022-09-03T11:47:21;100804.22;;;25.11;40.29
3132;BME280;62090;52.330;9.104;2022-09-03T11:50:05;100801.38;;;25.17;41.19
3132;BME280;62090;52.330;9.104;2022-09-03T11:52:37;100792.00;;;25.37;40.53
3132;BME280;62090;52.330;9.104;2022-09-03T11:55:07;100780.50;;;25.42;39.71
3132;BME280;62090;52.330;9.104;2022-09-03T11:57:40;100788.16;;;25.47;40.04
3132;BME280;62090;52.330;9.104;2022-09-03T12:00:16;100793.47;;;25.44;39.65
3132;BME280;62090;52.330;9.104;2022-09-03T12:02:54;100789.44;;;25.35;40.23
3132;BME280;62090;52.330;9.104;2022-09-03T12:05:30;100780.06;;;25.30;40.35
3132;BME280;62090;52.330;9.104;2022-09-03T12:08:27;100783.38;;;25.35;40.56
3132;BME280;62090;52.330;9.104;2022-09-03T12:11:16;100779.84;;;25.36;39.76
3132;BME280;62090;52.330;9.104;2022-09-03T12:13:59;100786.03;;;25.33;39.51
3132;BME280;62090;52.330;9.104;2022-09-03T12:16:44;100762.63;;;25.32;40.26
3132;BME280;62090;52.330;9.104;2022-09-03T12:19:23;100788.25;;;25.44;40.01
3132;BME280;62090;52.330;9.104;2022-09-03T12:21:56;100771.34;;;25.31;40.37
3132;BME280;62090;52.330;9.104;2022-09-03T12:24:31;100778.44;;;25.50;40.76
3132;BME280;62090;52.330;9.104;2022-09-03T12:27:05;100763.53;;;25.77;40.40
3132;BME280;62090;52.330;9.104;2022-09-03T12:29:49;100774.66;;;25.82;39.54
3132;BME280;62090;52.330;9.104;2022-09-03T12:32:31;100780.00;;;25.79;38.68
3132;BME280;62090;52.330;9.104;2022-09-03T12:35:15;100776.59;;;25.77;39.11
3132;BME280;62090;52.330;9.104;2022-09-03T12:38:05;100777.06;;;25.88;38.74
3132;BME280;62090;52.330;9.104;2022-09-03T12:40:42;100775.56;;;26.04;38.86
3132;BME280;62090;52.330;9.104;2022-09-03T12:43:33;100756.03;;;25.70;38.40
3132;BME280;62090;52.330;9.104;2022-09-03T12:46:12;100770.84;;;25.69;38.42
3132;BME280;62090;52.330;9.104;2022-09-03T12:48:51;100774.56;;;25.62;38.88
3132;BME280;62090;52.330;9.104;2022-09-03T12:51:42;100756.28;;;25.62;38.61
3132;BME280;62090;52.330;9.104;2022-09-03T12:54:20;100744.59;;;25.72;38.03
3132;BME280;62090;52.330;9.104;2022-09-03T12:56:53;100759.91;;;25.81;38.56
3132;BME280;62090;52.330;9.104;2022-09-03T12:59:26;100758.38;;;25.76;38.49
3132;BME280;62090;52.330;9.104;2022-09-03T13:02:02;100725.28;;;25.53;38.44
3132;BME280;62090;52.330;9.104;2022-09-03T13:04:38;100721.38;;;25.64;37.59
3132;BME280;62090;52.330;9.104;2022-09-03T13:07:12;100753.78;;;25.82;37.44
3132;BME280;62090;52.330;9.104;2022-09-03T13:09:46;100747.69;;;25.82;37.71
3132;BME280;62090;52.330;9.104;2022-09-03T13:12:23;100751.47;;;25.75;37.38
3132;BME280;62090;52.330;9.104;2022-09-03T13:15:08;100750.22;;;25.61;37.63
3132;BME280;62090;52.330;9.104;2022-09-03T13:17:54;100746.00;;;25.59;37.56
3132;BME280;62090;52.330;9.104;2022-09-03T13:20:44;100756.97;;;25.67;38.00
3132;BME280;62090;52.330;9.104;2022-09-03T13:26:23;100756.06;;;25.43;37.54
3132;BME280;62090;52.330;9.104;2022-09-03T13:29:18;100752.78;;;25.63;37.21
3132;BME280;62090;52.330;9.104;2022-09-03T13:31:59;100739.06;;;25.58;37.34
3132;BME280;62090;52.330;9.104;2022-09-03T13:34:35;100743.41;;;25.57;37.63
3132;BME280;62090;52.330;9.104;2022-09-03T13:37:25;100754.00;;;25.76;37.69
3132;BME280;62090;52.330;9.104;2022-09-03T13:39:58;100745.41;;;25.74;37.49
3132;BME280;62090;52.330;9.104;2022-09-03T13:42:34;100726.28;;;25.49;37.39
3132;BME280;62090;52.330;9.104;2022-09-03T13:45:15;100746.28;;;25.50;37.71
3132;BME280;62090;52.330;9.104;2022-09-03T13:47:56;100753.63;;;25.63;37.32